sensor_id;sensor_type;location;lat;lon;timestamp;temperature;humidity
52867;DHT22;38739;53.324;6.862;2022-12-18T00:01:35;-3.20;99.90
52867;DHT22;38739;53.324;6.862;2022-12-18T00:04:04;-3.20;99.90
52867;DHT22;38739;53.324;6.862;2022-12-18T00:06:30;-3.20;99.90
52867;DHT22;38739;53.324;6.862;2022-12-18T00:08:58;-3.20;99.90
52867;DHT22;38739;53.324;6.862;2022-12-18T00:11:27;-3.30;99.90
52867;DHT22;38739;53.324;6.862;2022-12-18T00:13:54;-3.30;99.90
52867;DHT22;38739;53.324;6.862;2022-12-18T00:16:21;-3.20;99.90
52867;DHT22;38739;53.324;6.862;2022-12-18T00:18:49;-3.20;99.90
52867;DHT22;38739;53.324;6.862;2022-12-18T00:21:15;-3.20;99.90
52867;DHT22;38739;53.324;6.862;2022-12-18T00:23:42;-3.20;99.90
52867;DHT22;38739;53.324;6.862;2022-12-18T00:26:12;-3.30;99.90
52867;DHT22;38739;53.324;6.862;2022-12-18T00:28:43;-3.20;99.90
52867;DHT22;38739;53.324;6.862;2022-12-18T00:31:12;-3.30;99.90
52867;DHT22;38739;53.324;6.862;2022-12-18T00:33:38;-3.30;99.90
52867;DHT22;38739;53.324;6.862;2022-12-18T00:36:11;-3.30;99.90
52867;DHT22;38739;53.324;6.862;2022-12-18T00:38:37;-3.40;99.90
52867;DHT22;38739;53.324;6.862;2022-12-18T00:41:04;-3.40;99.90
52867;DHT22;38739;53.324;6.862;2022-12-18T00:43:30;-3.30;99.90
52867;DHT22;38739;53.324;6.862;2022-12-18T00:45:55;-3.40;99.90
52867;DHT22;38739;53.324;6.862;2022-12-18T00:48:21;-3.40;99.90
52867;DHT22;38739;53.324;6.862;2022-12-18T00:50:48;-3.50;99.90
52867;DHT22;38739;53.324;6.862;2022-12-18T00:53:14;-3.50;99.90
52867;DHT22;38739;53.324;6.862;2022-12-18T00:55:40;-3.40;99.90
52867;DHT22;38739;53.324;6.862;2022-12-18T00:58:07;-3.40;99.90
52867;DHT22;38739;53.324;6.862;2022-12-18T01:00:33;-3.50;99.90
52867;DHT22;38739;53.324;6.862;2022-12-18T01:02:59;-3.50;99.90
52867;DHT22;38739;53.324;6.862;2022-12-18T01:05:25;-3.50;99.90
52867;DHT22;38739;53.324;6.862;2022-12-18T01:07:51;-3.50;99.90
52867;DHT22;38739;53.324;6.862;2022-12-18T01:10:17;-3.50;99.90
52867;DHT22;38739;53.324;6.862;2022-12-18T01:12:43;-3.50;99.90
52867;DHT22;38739;53.324;6.862;2022-12-18T01:15:10;-3.50;99.90
52867;DHT22;38739;53.324;6.862;2022-12-18T01:17:37;-3.50;99.90
52867;DHT22;38739;53.324;6.862;2022-12-18T01:20:03;-3.50;99.90
52867;DHT22;38739;53.324;6.862;2022-12-18T01:22:29;-3.50;99.90
52867;DHT22;38739;53.324;6.862;2022-12-18T01:24:55;-3.50;99.90
52867;DHT22;38739;53.324;6.862;2022-12-18T01:27:20;-3.50;99.90
52867;DHT22;38739;53.324;6.862;2022-12-18T01:29:46;-3.50;99.90
52867;DHT22;38739;53.324;6.862;2022-12-18T01:32:12;-3.50;99.90
52867;DHT22;38739;53.324;6.862;2022-12-18T01:34:38;-3.50;99.90
52867;DHT22;38739;53.324;6.862;2022-12-18T01:37:04;-3.50;99.90
52867;DHT22;38739;53.324;6.862;2022-12-18T01:39:31;-3.50;99.90
52867;DHT22;38739;53.324;6.862;2022-12-18T01:41:58;-3.50;99.90
52867;DHT22;38739;53.324;6.862;2022-12-18T01:45:06;-3.50;99.90
52867;DHT22;38739;53.324;6.862;2022-12-18T01:49:59;-3.50;99.90
52867;DHT22;38739;53.324;6.862;2022-12-18T01:52:28;-3.50;99.90
52867;DHT22;38739;53.324;6.862;2022-12-18T01:54:55;-3.60;99.90
52867;DHT22;38739;53.324;6.862;2022-12-18T01:57:22;-3.60;99.90
52867;DHT22;38739;53.324;6.862;2022-12-18T01:59:52;-3.60;99.90
52867;DHT22;38739;53.324;6.862;2022-12-18T02:02:20;-3.70;99.90
52867;DHT22;38739;53.324;6.862;2022-12-18T02:04:45;-3.70;99.90
52867;DHT22;38739;53.324;6.862;2022-12-18T02:07:32;-3.70;99.90
52867;DHT22;38739;53.324;6.862;2022-12-18T02:12:48;-3.80;99.90
52867;DHT22;38739;53.324;6.862;2022-12-18T02:18:19;-3.80;99.90
52867;DHT22;38739;53.324;6.862;2022-12-18T02:26:29;-3.90;99.90
52867;DHT22;38739;53.324;6.862;2022-12-18T02:29:00;-4.00;99.90
52867;DHT22;38739;53.324;6.862;2022-12-18T02:31:31;-4.00;99.90
52867;DHT22;38739;53.324;6.862;2022-12-18T02:34:04;-4.00;99.90
52867;DHT22;38739;53.324;6.862;2022-12-18T02:36:32;-4.10;99.90
52867;DHT22;38739;53.324;6.862;2022-12-18T02:38:59;-4.10;99.90
52867;DHT22;38739;53.324;6.862;2022-12-18T02:41:26;-4.10;99.90
52867;DHT22;38739;53.324;6.862;2022-12-18T02:43:58;-4.10;99.90
52867;DHT22;38739;53.324;6.862;2022-12-18T02:46:39;-4.10;99.90
52867;DHT22;38739;53.324;6.862;2022-12-18T02:49:15;-4.10;99.90
52867;DHT22;38739;53.324;6.862;2022-12-18T02:51:56;-4.20;99.90
52867;DHT22;38739;53.324;6.862;2022-12-18T02:57:42;-4.20;99.90
52867;DHT22;38739;53.324;6.862;2022-12-18T03:00:23;-4.20;99.90
52867;DHT22;38739;53.324;6.862;2022-12-18T03:02:53;-4.20;99.90
52867;DHT22;38739;53.324;6.862;2022-12-18T03:05:27;-4.20;99.90
52867;DHT22;38739;53.324;6.862;2022-12-18T03:10:33;-4.20;99.90
52867;DHT22;38739;53.324;6.862;2022-12-18T03:13:08;-4.20;99.90
52867;DHT22;38739;53.324;6.862;2022-12-18T03:15:49;-4.20;99.90
52867;DHT22;38739;53.324;6.862;2022-12-18T03:18:32;-4.20;99.90
52867;DHT22;38739;53.324;6.862;2022-12-18T03:21:02;-4.20;99.90
52867;DHT22;38739;53.324;6.862;2022-12-18T03:23:35;-4.20;99.90
52867;DHT22;38739;53.324;6.862;2022-12-18T03:26:06;-4.30;99.90
52867;DHT22;38739;53.324;6.862;2022-12-18T03:28:36;-4.30;99.90
52867;DHT22;38739;53.324;6.862;2022-12-18T03:31:05;-4.30;99.90
52867;DHT22;38739;53.324;6.862;2022-12-18T03:33:42;-4.30;99.90
52867;DHT22;38739;53.324;6.862;2022-12-18T03:36:09;-4.30;99.90
52867;DHT22;38739;53.324;6.862;2022-12-18T03:38:35;-4.40;99.90
52867;DHT22;38739;53.324;6.862;2022-12-18T03:44:11;-4.40;99.90
52867;DHT22;38739;53.324;6.862;2022-12-18T03:46:41;-4.50;99.90
52867;DHT22;38739;53.324;6.862;2022-12-18T03:49:12;-4.50;99.90
52867;DHT22;38739;53.324;6.862;2022-12-18T03:51:57;-4.50;99.90
52867;DHT22;38739;53.324;6.862;2022-12-18T03:54:25;-4.50;99.90
52867;DHT22;38739;53.324;6.862;2022-12-18T03:57:05;-4.50;99.90
52867;DHT22;38739;53.324;6.862;2022-12-18T03:59:33;-4.60;99.90
52867;DHT22;38739;53.324;6.862;2022-12-18T04:02:01;-4.60;99.90
52867;DHT22;38739;53.324;6.862;2022-12-18T04:04:30;-4.60;99.90
52867;DHT22;38739;53.324;6.862;2022-12-18T04:06:57;-4.70;99.90
52867;DHT22;38739;53.324;6.862;2022-12-18T04:09:24;-4.70;99.90
52867;DHT22;38739;53.324;6.862;2022-12-18T04:11:51;-4.70;99.90
52867;DHT22;38739;53.324;6.862;2022-12-18T04:14:17;-4.70;99.90
52867;DHT22;38739;53.324;6.862;2022-12-18T04:16:43;-4.70;99.90
52867;DHT22;38739;53.324;6.862;2022-12-18T04:19:09;-4.80;99.90
52867;DHT22;38739;53.324;6.862;2022-12-18T04:21:34;-4.80;99.90
52867;DHT22;38739;53.324;6.862;2022-12-18T04:24:00;-4.80;99.90
52867;DHT22;38739;53.324;6.862;2022-12-18T04:26:26;-4.80;99.90
52867;DHT22;38739;53.324;6.862;2022-12-18T04:28:51;-4.90;99.90
52867;DHT22;38739;53.324;6.862;2022-12-18T04:31:17;-4.90;99.90
52867;DHT22;38739;53.324;6.862;2022-12-18T04:33:43;-4.90;99.90
52867;DHT22;38739;53.324;6.862;2022-12-18T04:36:08;-4.90;99.90
52867;DHT22;38739;53.324;6.862;2022-12-18T04:38:34;-5.00;99.90
52867;DHT22;38739;53.324;6.862;2022-12-18T04:41:00;-5.00;99.90
52867;DHT22;38739;53.324;6.862;2022-12-18T04:43:25;-5.00;99.90
52867;DHT22;38739;53.324;6.862;2022-12-18T04:45:51;-5.00;99.90
52867;DHT22;38739;53.324;6.862;2022-12-18T04:48:17;-5.10;99.90
52867;DHT22;38739;53.324;6.862;2022-12-18T04:50:42;-5.10;99.90
52867;DHT22;38739;53.324;6.862;2022-12-18T04:53:08;-5.10;99.90
52867;DHT22;38739;53.324;6.862;2022-12-18T04:55:34;-5.10;99.90
52867;DHT22;38739;53.324;6.862;2022-12-18T04:57:59;-5.20;99.90
52867;DHT22;38739;53.324;6.862;2022-12-18T05:00:25;-5.20;99.90
52867;DHT22;38739;53.324;6.862;2022-12-18T05:02:51;-5.20;99.90
52867;DHT22;38739;53.324;6.862;2022-12-18T05:05:17;-5.20;99.90
52867;DHT22;38739;53.324;6.862;2022-12-18T05:07:42;-5.30;99.90
52867;DHT22;38739;53.324;6.862;2022-12-18T05:10:09;-5.30;99.90
52867;DHT22;38739;53.324;6.862;2022-12-18T05:12:35;-5.30;99.90
52867;DHT22;38739;53.324;6.862;2022-12-18T05:15:20;-5.30;99.90
52867;DHT22;38739;53.324;6.862;2022-12-18T05:17:46;-5.40;99.90
52867;DHT22;38739;53.324;6.862;2022-12-18T05:20:11;-5.40;99.90
52867;DHT22;38739;53.324;6.862;2022-12-18T05:22:37;-5.40;99.90
52867;DHT22;38739;53.324;6.862;2022-12-18T05:25:03;-5.40;99.90
52867;DHT22;38739;53.324;6.862;2022-12-18T05:27:29;-5.40;99.90
52867;DHT22;38739;53.324;6.862;2022-12-18T05:29:55;-5.50;99.90
52867;DHT22;38739;53.324;6.862;2022-12-18T05:32:21;-5.50;99.90
52867;DHT22;38739;53.324;6.862;2022-12-18T05:34:46;-5.40;99.90
52867;DHT22;38739;53.324;6.862;2022-12-18T05:37:12;-5.50;99.90
52867;DHT22;38739;53.324;6.862;2022-12-18T05:39:38;-5.50;99.90
52867;DHT22;38739;53.324;6.862;2022-12-18T05:42:04;-5.50;99.90
52867;DHT22;38739;53.324;6.862;2022-12-18T05:44:29;-5.50;99.90
52867;DHT22;38739;53.324;6.862;2022-12-18T05:46:55;-5.50;99.90
52867;DHT22;38739;53.324;6.862;2022-12-18T05:49:21;-5.50;99.90
52867;DHT22;38739;53.324;6.862;2022-12-18T05:51:46;-5.50;99.90
52867;DHT22;38739;53.324;6.862;2022-12-18T05:54:12;-5.60;99.90
52867;DHT22;38739;53.324;6.862;2022-12-18T05:56:38;-5.60;99.90
52867;DHT22;38739;53.324;6.862;2022-12-18T05:59:03;-5.60;99.90
52867;DHT22;38739;53.324;6.862;2022-12-18T06:01:29;-5.60;99.90
52867;DHT22;38739;53.324;6.862;2022-12-18T06:03:55;-5.60;99.90
52867;DHT22;38739;53.324;6.862;2022-12-18T06:06:23;-5.70;99.90
52867;DHT22;38739;53.324;6.862;2022-12-18T06:08:49;-5.70;99.90
52867;DHT22;38739;53.324;6.862;2022-12-18T06:11:18;-5.70;99.90
52867;DHT22;38739;53.324;6.862;2022-12-18T06:13:44;-5.70;99.90
52867;DHT22;38739;53.324;6.862;2022-12-18T06:16:09;-5.80;99.90
52867;DHT22;38739;53.324;6.862;2022-12-18T06:18:35;-5.80;99.90
52867;DHT22;38739;53.324;6.862;2022-12-18T06:21:01;-5.80;99.90
52867;DHT22;38739;53.324;6.862;2022-12-18T06:23:27;-5.80;99.90
52867;DHT22;38739;53.324;6.862;2022-12-18T06:25:53;-5.90;99.90
52867;DHT22;38739;53.324;6.862;2022-12-18T06:28:19;-5.90;99.90
52867;DHT22;38739;53.324;6.862;2022-12-18T06:30:46;-5.90;99.90
52867;DHT22;38739;53.324;6.862;2022-12-18T06:33:12;-5.90;99.90
52867;DHT22;38739;53.324;6.862;2022-12-18T06:35:37;-5.90;99.90
52867;DHT22;38739;53.324;6.862;2022-12-18T06:38:03;-5.90;99.90
52867;DHT22;38739;53.324;6.862;2022-12-18T06:40:29;-5.90;99.90
52867;DHT22;38739;53.324;6.862;2022-12-18T06:42:55;-5.90;99.90
52867;DHT22;38739;53.324;6.862;2022-12-18T06:45:20;-5.90;99.90
52867;DHT22;38739;53.324;6.862;2022-12-18T06:47:46;-5.90;99.90
52867;DHT22;38739;53.324;6.862;2022-12-18T06:50:12;-5.90;99.90
52867;DHT22;38739;53.324;6.862;2022-12-18T06:52:39;-6.00;99.90
52867;DHT22;38739;53.324;6.862;2022-12-18T06:55:09;-6.00;99.90
52867;DHT22;38739;53.324;6.862;2022-12-18T06:57:36;-6.00;99.90
52867;DHT22;38739;53.324;6.862;2022-12-18T07:00:03;-6.00;99.90
52867;DHT22;38739;53.324;6.862;2022-12-18T07:02:29;-6.00;99.90
52867;DHT22;38739;53.324;6.862;2022-12-18T07:04:55;-6.00;99.90
52867;DHT22;38739;53.324;6.862;2022-12-18T07:07:20;-6.00;99.90
52867;DHT22;38739;53.324;6.862;2022-12-18T07:09:46;-6.00;99.90
52867;DHT22;38739;53.324;6.862;2022-12-18T07:12:12;-6.00;99.90
52867;DHT22;38739;53.324;6.862;2022-12-18T07:14:37;-6.00;99.90
52867;DHT22;38739;53.324;6.862;2022-12-18T07:17:03;-6.00;99.90
52867;DHT22;38739;53.324;6.862;2022-12-18T07:19:29;-6.10;99.90
52867;DHT22;38739;53.324;6.862;2022-12-18T07:21:55;-6.00;99.90
52867;DHT22;38739;53.324;6.862;2022-12-18T07:24:20;-6.10;99.90
52867;DHT22;38739;53.324;6.862;2022-12-18T07:26:46;-6.00;99.90
52867;DHT22;38739;53.324;6.862;2022-12-18T07:29:12;-6.10;99.90
52867;DHT22;38739;53.324;6.862;2022-12-18T07:31:38;-6.10;99.90
52867;DHT22;38739;53.324;6.862;2022-12-18T07:34:04;-6.00;99.90
52867;DHT22;38739;53.324;6.862;2022-12-18T07:36:30;-6.10;99.90
52867;DHT22;38739;53.324;6.862;2022-12-18T07:38:55;-6.10;99.90
52867;DHT22;38739;53.324;6.862;2022-12-18T07:41:21;-6.10;99.90
52867;DHT22;38739;53.324;6.862;2022-12-18T07:43:48;-6.10;99.90
52867;DHT22;38739;53.324;6.862;2022-12-18T07:46:14;-6.10;99.90
52867;DHT22;38739;53.324;6.862;2022-12-18T07:48:44;-6.10;99.90
52867;DHT22;38739;53.324;6.862;2022-12-18T07:51:09;-6.10;99.90
52867;DHT22;38739;53.324;6.862;2022-12-18T07:53:36;-6.10;99.90
52867;DHT22;38739;53.324;6.862;2022-12-18T07:56:11;-6.10;99.90
52867;DHT22;38739;53.324;6.862;2022-12-18T07:58:37;-6.00;99.90
52867;DHT22;38739;53.324;6.862;2022-12-18T08:01:05;-6.00;99.90
52867;DHT22;38739;53.324;6.862;2022-12-18T08:03:31;-6.00;99.90
52867;DHT22;38739;53.324;6.862;2022-12-18T08:06:02;-6.00;99.90
52867;DHT22;38739;53.324;6.862;2022-12-18T08:08:28;-5.90;99.90
52867;DHT22;38739;53.324;6.862;2022-12-18T08:10:54;-5.90;99.90
52867;DHT22;38739;53.324;6.862;2022-12-18T08:13:20;-5.90;99.90
52867;DHT22;38739;53.324;6.862;2022-12-18T08:15:46;-5.90;99.90
52867;DHT22;38739;53.324;6.862;2022-12-18T08:18:12;-5.80;99.90
52867;DHT22;38739;53.324;6.862;2022-12-18T08:20:37;-5.80;99.90
52867;DHT22;38739;53.324;6.862;2022-12-18T08:23:03;-5.80;99.90
52867;DHT22;38739;53.324;6.862;2022-12-18T08:25:29;-5.80;99.90
52867;DHT22;38739;53.324;6.862;2022-12-18T08:27:54;-5.70;99.90
52867;DHT22;38739;53.324;6.862;2022-12-18T08:30:21;-5.70;99.90
52867;DHT22;38739;53.324;6.862;2022-12-18T08:32:51;-5.70;99.90
52867;DHT22;38739;53.324;6.862;2022-12-18T08:35:18;-5.60;99.90
52867;DHT22;38739;53.324;6.862;2022-12-18T08:37:43;-5.60;99.90
52867;DHT22;38739;53.324;6.862;2022-12-18T08:40:09;-5.50;99.90
52867;DHT22;38739;53.324;6.862;2022-12-18T08:42:35;-5.50;99.90
52867;DHT22;38739;53.324;6.862;2022-12-18T08:45:20;-5.50;99.90
52867;DHT22;38739;53.324;6.862;2022-12-18T08:47:45;-5.40;99.90
52867;DHT22;38739;53.324;6.862;2022-12-18T08:50:14;-5.40;99.90
52867;DHT22;38739;53.324;6.862;2022-12-18T08:52:40;-5.30;99.90
52867;DHT22;38739;53.324;6.862;2022-12-18T08:55:06;-5.30;99.90
52867;DHT22;38739;53.324;6.862;2022-12-18T08:57:32;-5.30;99.90
52867;DHT22;38739;53.324;6.862;2022-12-18T08:59:57;-5.20;99.90
52867;DHT22;38739;53.324;6.862;2022-12-18T09:02:23;-5.20;99.90
52867;DHT22;38739;53.324;6.862;2022-12-18T09:04:49;-5.10;99.90
52867;DHT22;38739;53.324;6.862;2022-12-18T09:07:14;-5.10;99.90
52867;DHT22;38739;53.324;6.862;2022-12-18T09:09:40;-5.00;99.90
52867;DHT22;38739;53.324;6.862;2022-12-18T09:12:06;-4.90;99.90
52867;DHT22;38739;53.324;6.862;2022-12-18T09:14:32;-4.90;99.90
52867;DHT22;38739;53.324;6.862;2022-12-18T09:16:58;-4.90;99.90
52867;DHT22;38739;53.324;6.862;2022-12-18T09:19:23;-4.80;99.90
52867;DHT22;38739;53.324;6.862;2022-12-18T09:21:49;-4.80;99.90
52867;DHT22;38739;53.324;6.862;2022-12-18T09:24:15;-4.80;99.90
52867;DHT22;38739;53.324;6.862;2022-12-18T09:26:41;-4.70;99.90
52867;DHT22;38739;53.324;6.862;2022-12-18T09:29:07;-4.70;99.90
52867;DHT22;38739;53.324;6.862;2022-12-18T09:31:36;-4.60;99.90
52867;DHT22;38739;53.324;6.862;2022-12-18T09:34:02;-4.60;99.90
52867;DHT22;38739;53.324;6.862;2022-12-18T09:36:32;-4.50;99.90
52867;DHT22;38739;53.324;6.862;2022-12-18T09:38:58;-4.40;99.90
52867;DHT22;38739;53.324;6.862;2022-12-18T09:43:57;-4.30;99.90
52867;DHT22;38739;53.324;6.862;2022-12-18T09:46:30;-4.20;99.90
52867;DHT22;38739;53.324;6.862;2022-12-18T09:48:59;-4.20;99.90
52867;DHT22;38739;53.324;6.862;2022-12-18T09:51:35;-4.10;99.90
52867;DHT22;38739;53.324;6.862;2022-12-18T09:54:22;-4.10;99.90
52867;DHT22;38739;53.324;6.862;2022-12-18T09:56:49;-4.10;99.90
52867;DHT22;38739;53.324;6.862;2022-12-18T09:59:29;-4.00;99.90
52867;DHT22;38739;53.324;6.862;2022-12-18T10:01:56;-4.00;99.90
52867;DHT22;38739;53.324;6.862;2022-12-18T10:04:22;-4.00;99.90
52867;DHT22;38739;53.324;6.862;2022-12-18T10:06:54;-3.90;99.90
52867;DHT22;38739;53.324;6.862;2022-12-18T10:09:28;-3.90;99.90
52867;DHT22;38739;53.324;6.862;2022-12-18T10:20:26;-3.60;99.90
52867;DHT22;38739;53.324;6.862;2022-12-18T10:22:56;-3.50;99.90
52867;DHT22;38739;53.324;6.862;2022-12-18T10:25:57;-3.30;99.90
52867;DHT22;38739;53.324;6.862;2022-12-18T10:28:26;-3.10;99.90
52867;DHT22;38739;53.324;6.862;2022-12-18T10:30:52;-3.00;99.90
52867;DHT22;38739;53.324;6.862;2022-12-18T10:33:23;-2.90;99.90
52867;DHT22;38739;53.324;6.862;2022-12-18T10:35:51;-2.80;99.90
52867;DHT22;38739;53.324;6.862;2022-12-18T10:43:51;-2.40;99.90
52867;DHT22;38739;53.324;6.862;2022-12-18T10:46:35;-2.40;99.90
52867;DHT22;38739;53.324;6.862;2022-12-18T10:49:01;-2.30;99.90
52867;DHT22;38739;53.324;6.862;2022-12-18T10:51:32;-2.20;99.90
52867;DHT22;38739;53.324;6.862;2022-12-18T10:54:12;-2.10;99.90
52867;DHT22;38739;53.324;6.862;2022-12-18T10:56:39;-2.10;99.90
52867;DHT22;38739;53.324;6.862;2022-12-18T10:59:07;-2.00;99.90
52867;DHT22;38739;53.324;6.862;2022-12-18T11:01:54;-2.00;99.90
52867;DHT22;38739;53.324;6.862;2022-12-18T11:04:31;-1.90;99.90
52867;DHT22;38739;53.324;6.862;2022-12-18T11:07:01;-1.90;99.90
52867;DHT22;38739;53.324;6.862;2022-12-18T11:09:31;-1.90;99.90
52867;DHT22;38739;53.324;6.862;2022-12-18T11:12:19;-1.80;99.90
52867;DHT22;38739;53.324;6.862;2022-12-18T11:14:50;-1.90;99.90
52867;DHT22;38739;53.324;6.862;2022-12-18T11:19:45;-1.90;99.90
52867;DHT22;38739;53.324;6.862;2022-12-18T11:22:28;-1.90;99.90
52867;DHT22;38739;53.324;6.862;2022-12-18T11:25:06;-1.90;99.90
52867;DHT22;38739;53.324;6.862;2022-12-18T11:27:51;-2.00;99.90
52867;DHT22;38739;53.324;6.862;2022-12-18T11:30:25;-1.90;99.90
52867;DHT22;38739;53.324;6.862;2022-12-18T11:38:31;-1.90;99.90
52867;DHT22;38739;53.324;6.862;2022-12-18T11:43:55;-1.90;99.90
52867;DHT22;38739;53.324;6.862;2022-12-18T11:46:32;-1.90;99.90
52867;DHT22;38739;53.324;6.862;2022-12-18T11:49:20;-1.90;99.90
52867;DHT22;38739;53.324;6.862;2022-12-18T11:54:22;-1.80;99.90
52867;DHT22;38739;53.324;6.862;2022-12-18T12:16:08;-1.70;99.90
52867;DHT22;38739;53.324;6.862;2022-12-18T12:24:19;-1.70;99.90
52867;DHT22;38739;53.324;6.862;2022-12-18T12:29:34;-1.60;99.90
52867;DHT22;38739;53.324;6.862;2022-12-18T12:40:35;-1.50;99.90
52867;DHT22;38739;53.324;6.862;2022-12-18T12:43:24;-1.50;99.90
52867;DHT22;38739;53.324;6.862;2022-12-18T12:45:57;-1.50;99.90
52867;DHT22;38739;53.324;6.862;2022-12-18T12:48:31;-1.50;99.90
52867;DHT22;38739;53.324;6.862;2022-12-18T12:51:01;-1.50;99.90
52867;DHT22;38739;53.324;6.862;2022-12-18T12:53:32;-1.40;99.90
52867;DHT22;38739;53.324;6.862;2022-12-18T12:56:00;-1.40;99.90
52867;DHT22;38739;53.324;6.862;2022-12-18T13:04:15;-1.40;99.90
52867;DHT22;38739;53.324;6.862;2022-12-18T13:06:49;-1.40;99.90
52867;DHT22;38739;53.324;6.862;2022-12-18T13:09:17;-1.30;99.90
52867;DHT22;38739;53.324;6.862;2022-12-18T13:11:47;-1.30;99.90
52867;DHT22;38739;53.324;6.862;2022-12-18T13:14:37;-1.40;99.90
52867;DHT22;38739;53.324;6.862;2022-12-18T13:19:52;-1.40;99.90
52867;DHT22;38739;53.324;6.862;2022-12-18T13:24:59;-1.40;99.90
52867;DHT22;38739;53.324;6.862;2022-12-18T13:35:58;-1.30;99.90
52867;DHT22;38739;53.324;6.862;2022-12-18T13:40:58;-1.30;99.90
52867;DHT22;38739;53.324;6.862;2022-12-18T13:43:31;-1.30;99.90
52867;DHT22;38739;53.324;6.862;2022-12-18T13:48:53;-1.30;99.90
52867;DHT22;38739;53.324;6.862;2022-12-18T13:51:21;-1.30;99.90
52867;DHT22;38739;53.324;6.862;2022-12-18T13:56:58;-1.30;99.90
52867;DHT22;38739;53.324;6.862;2022-12-18T13:59:35;-1.40;99.90
52867;DHT22;38739;53.324;6.862;2022-12-18T14:02:14;-1.40;99.90
52867;DHT22;38739;53.324;6.862;2022-12-18T14:04:40;-1.40;99.90
52867;DHT22;38739;53.324;6.862;2022-12-18T14:07:10;-1.40;99.90
52867;DHT22;38739;53.324;6.862;2022-12-18T14:09:40;-1.50;99.90
52867;DHT22;38739;53.324;6.862;2022-12-18T14:12:17;-1.50;99.90
52867;DHT22;38739;53.324;6.862;2022-12-18T14:15:03;-1.50;99.90
52867;DHT22;38739;53.324;6.862;2022-12-18T14:17:31;-1.60;99.90
52867;DHT22;38739;53.324;6.862;2022-12-18T14:19:57;-1.60;99.90
52867;DHT22;38739;53.324;6.862;2022-12-18T14:22:26;-1.60;99.90
52867;DHT22;38739;53.324;6.862;2022-12-18T14:25:15;-1.60;99.90
52867;DHT22;38739;53.324;6.862;2022-12-18T14:27:46;-1.70;99.90
52867;DHT22;38739;53.324;6.862;2022-12-18T14:30:40;-1.70;99.90
52867;DHT22;38739;53.324;6.862;2022-12-18T14:36:01;-1.70;99.90
52867;DHT22;38739;53.324;6.862;2022-12-18T14:38:36;-1.80;99.90
52867;DHT22;38739;53.324;6.862;2022-12-18T14:43:36;-1.80;99.90
52867;DHT22;38739;53.324;6.862;2022-12-18T14:46:04;-1.90;99.90
52867;DHT22;38739;53.324;6.862;2022-12-18T14:51:05;-1.90;99.90
52867;DHT22;38739;53.324;6.862;2022-12-18T14:53:46;-1.90;99.90
52867;DHT22;38739;53.324;6.862;2022-12-18T14:56:21;-1.90;99.90
52867;DHT22;38739;53.324;6.862;2022-12-18T14:58:59;-2.00;99.90
52867;DHT22;38739;53.324;6.862;2022-12-18T15:01:37;-2.00;99.90
52867;DHT22;38739;53.324;6.862;2022-12-18T15:04:04;-2.00;99.90
52867;DHT22;38739;53.324;6.862;2022-12-18T15:06:34;-2.00;99.90
52867;DHT22;38739;53.324;6.862;2022-12-18T15:09:04;-2.00;99.90
52867;DHT22;38739;53.324;6.862;2022-12-18T15:11:35;-2.00;99.90
52867;DHT22;38739;53.324;6.862;2022-12-18T15:14:35;-2.00;99.90
52867;DHT22;38739;53.324;6.862;2022-12-18T15:17:04;-2.00;99.90
52867;DHT22;38739;53.324;6.862;2022-12-18T15:19:41;-2.00;99.90
52867;DHT22;38739;53.324;6.862;2022-12-18T15:22:34;-2.10;99.90
52867;DHT22;38739;53.324;6.862;2022-12-18T15:25:01;-2.10;99.90
52867;DHT22;38739;53.324;6.862;2022-12-18T15:27:33;-2.10;99.90
52867;DHT22;38739;53.324;6.862;2022-12-18T15:32:42;-2.00;99.90
52867;DHT22;38739;53.324;6.862;2022-12-18T15:35:21;-2.00;99.90
52867;DHT22;38739;53.324;6.862;2022-12-18T15:37:47;-2.00;99.90
52867;DHT22;38739;53.324;6.862;2022-12-18T15:40:22;-2.00;99.90
52867;DHT22;38739;53.324;6.862;2022-12-18T15:42:48;-2.10;99.90
52867;DHT22;38739;53.324;6.862;2022-12-18T15:45:35;-2.10;99.90
52867;DHT22;38739;53.324;6.862;2022-12-18T15:48:18;-2.10;99.90
52867;DHT22;38739;53.324;6.862;2022-12-18T15:50:44;-2.10;99.90
52867;DHT22;38739;53.324;6.862;2022-12-18T15:53:09;-2.10;99.90
52867;DHT22;38739;53.324;6.862;2022-12-18T15:55:35;-2.10;99.90
52867;DHT22;38739;53.324;6.862;2022-12-18T15:58:19;-2.10;99.90
52867;DHT22;38739;53.324;6.862;2022-12-18T16:00:46;-2.10;99.90
52867;DHT22;38739;53.324;6.862;2022-12-18T16:03:11;-2.10;99.90
52867;DHT22;38739;53.324;6.862;2022-12-18T16:05:37;-2.10;99.90
52867;DHT22;38739;53.324;6.862;2022-12-18T16:08:03;-2.10;99.90
52867;DHT22;38739;53.324;6.862;2022-12-18T16:10:29;-2.10;99.90
52867;DHT22;38739;53.324;6.862;2022-12-18T16:12:54;-2.00;99.90
52867;DHT22;38739;53.324;6.862;2022-12-18T16:15:20;-2.00;99.90
52867;DHT22;38739;53.324;6.862;2022-12-18T16:17:46;-2.00;99.90
52867;DHT22;38739;53.324;6.862;2022-12-18T16:20:15;-2.00;99.90
52867;DHT22;38739;53.324;6.862;2022-12-18T16:22:42;-2.00;99.90
52867;DHT22;38739;53.324;6.862;2022-12-18T16:25:24;-2.00;99.90
52867;DHT22;38739;53.324;6.862;2022-12-18T16:27:51;-2.00;99.90
52867;DHT22;38739;53.324;6.862;2022-12-18T16:30:20;-2.00;99.90
52867;DHT22;38739;53.324;6.862;2022-12-18T16:32:47;-2.00;99.90
52867;DHT22;38739;53.324;6.862;2022-12-18T16:35:14;-2.00;99.90
52867;DHT22;38739;53.324;6.862;2022-12-18T16:37:41;-1.90;99.90
52867;DHT22;38739;53.324;6.862;2022-12-18T16:40:09;-2.00;99.90
52867;DHT22;38739;53.324;6.862;2022-12-18T16:42:39;-2.00;99.90
52867;DHT22;38739;53.324;6.862;2022-12-18T16:45:07;-2.00;99.90
52867;DHT22;38739;53.324;6.862;2022-12-18T16:47:33;-2.00;99.90
52867;DHT22;38739;53.324;6.862;2022-12-18T16:49:59;-1.90;99.90
52867;DHT22;38739;53.324;6.862;2022-12-18T16:52:25;-1.90;99.90
52867;DHT22;38739;53.324;6.862;2022-12-18T16:54:51;-1.90;99.90
52867;DHT22;38739;53.324;6.862;2022-12-18T16:57:19;-1.90;99.90
52867;DHT22;38739;53.324;6.862;2022-12-18T16:59:45;-1.90;99.90
52867;DHT22;38739;53.324;6.862;2022-12-18T17:02:29;-1.90;99.90
52867;DHT22;38739;53.324;6.862;2022-12-18T17:04:56;-1.80;99.90
52867;DHT22;38739;53.324;6.862;2022-12-18T17:07:23;-1.80;99.90
52867;DHT22;38739;53.324;6.862;2022-12-18T17:09:48;-1.80;99.90
52867;DHT22;38739;53.324;6.862;2022-12-18T17:12:18;-1.80;99.90
52867;DHT22;38739;53.324;6.862;2022-12-18T17:14:44;-1.80;99.90
52867;DHT22;38739;53.324;6.862;2022-12-18T17:17:09;-1.80;99.90
52867;DHT22;38739;53.324;6.862;2022-12-18T17:19:35;-1.80;99.90
52867;DHT22;38739;53.324;6.862;2022-12-18T17:22:01;-1.80;99.90
52867;DHT22;38739;53.324;6.862;2022-12-18T17:24:27;-1.80;99.90
52867;DHT22;38739;53.324;6.862;2022-12-18T17:26:52;-1.80;99.90
52867;DHT22;38739;53.324;6.862;2022-12-18T17:29:19;-1.70;99.90
52867;DHT22;38739;53.324;6.862;2022-12-18T17:31:46;-1.70;99.90
52867;DHT22;38739;53.324;6.862;2022-12-18T17:34:12;-1.80;99.90
52867;DHT22;38739;53.324;6.862;2022-12-18T17:36:38;-1.70;99.90
52867;DHT22;38739;53.324;6.862;2022-12-18T17:39:05;-1.70;99.90
52867;DHT22;38739;53.324;6.862;2022-12-18T17:41:31;-1.70;99.90
52867;DHT22;38739;53.324;6.862;2022-12-18T17:44:00;-1.70;99.90
52867;DHT22;38739;53.324;6.862;2022-12-18T17:46:27;-1.70;99.90
52867;DHT22;38739;53.324;6.862;2022-12-18T17:49:01;-1.70;99.90
52867;DHT22;38739;53.324;6.862;2022-12-18T17:51:27;-1.70;99.90